sensor_id;sensor_type;location;lat;lon;timestamp;temperature;humidity
8340;DHT22;4207;49.314;7.162;2022-08-05T05:41:30;21.60;99.90
8340;DHT22;4207;49.314;7.162;2022-08-05T05:44:08;21.70;99.90
8340;DHT22;4207;49.314;7.162;2022-08-05T05:46:56;21.80;99.90
8340;DHT22;4207;49.314;7.162;2022-08-05T05:49:30;21.90;99.90
8340;DHT22;4207;49.314;7.162;2022-08-05T05:51:59;22.00;99.90
8340;DHT22;4207;49.314;7.162;2022-08-05T05:54:34;22.10;99.90
8340;DHT22;4207;49.314;7.162;2022-08-05T05:57:16;22.30;99.90
8340;DHT22;4207;49.314;7.162;2022-08-05T05:59:45;22.40;99.90
8340;DHT22;4207;49.314;7.162;2022-08-05T06:02:15;22.40;99.90
8340;DHT22;4207;49.314;7.162;2022-08-05T06:05:06;22.50;99.90
8340;DHT22;4207;49.314;7.162;2022-08-05T06:07:43;22.40;99.90
8340;DHT22;4207;49.314;7.162;2022-08-05T06:10:28;22.40;99.90
8340;DHT22;4207;49.314;7.162;2022-08-05T06:13:14;22.30;99.90
8340;DHT22;4207;49.314;7.162;2022-08-05T06:15:49;22.30;99.90
8340;DHT22;4207;49.314;7.162;2022-08-05T06:18:37;22.30;99.90
8340;DHT22;4207;49.314;7.162;2022-08-05T06:21:05;22.30;99.90
8340;DHT22;4207;49.314;7.162;2022-08-05T06:23:47;22.30;99.90
8340;DHT22;4207;49.314;7.162;2022-08-05T06:26:22;22.30;99.90
8340;DHT22;4207;49.314;7.162;2022-08-05T06:28:57;22.30;99.90
8340;DHT22;4207;49.314;7.162;2022-08-05T06:31:46;22.30;99.90
8340;DHT22;4207;49.314;7.162;2022-08-05T06:34:16;22.20;99.90
8340;DHT22;4207;49.314;7.162;2022-08-05T06:36:46;22.10;99.90
8340;DHT22;4207;49.314;7.162;2022-08-05T06:39:24;22.10;99.90
8340;DHT22;4207;49.314;7.162;2022-08-05T06:41:55;22.00;99.90
8340;DHT22;4207;49.314;7.162;2022-08-05T06:44:24;22.00;99.90
8340;DHT22;4207;49.314;7.162;2022-08-05T06:46:53;22.00;99.90
8340;DHT22;4207;49.314;7.162;2022-08-05T06:49:22;22.00;99.90
8340;DHT22;4207;49.314;7.162;2022-08-05T06:52:10;21.90;99.90
8340;DHT22;4207;49.314;7.162;2022-08-05T06:54:58;21.80;99.90
8340;DHT22;4207;49.314;7.162;2022-08-05T06:57:29;21.70;99.90
8340;DHT22;4207;49.314;7.162;2022-08-05T07:00:18;21.70;99.90
8340;DHT22;4207;49.314;7.162;2022-08-05T07:02:51;21.70;99.90
8340;DHT22;4207;49.314;7.162;2022-08-05T07:05:20;21.70;99.90
8340;DHT22;4207;49.314;7.162;2022-08-05T07:08:03;21.70;99.90
8340;DHT22;4207;49.314;7.162;2022-08-05T07:10:37;21.80;99.90
8340;DHT22;4207;49.314;7.162;2022-08-05T07:13:20;21.90;99.90
8340;DHT22;4207;49.314;7.162;2022-08-05T07:16:26;22.00;99.90
8340;DHT22;4207;49.314;7.162;2022-08-05T07:19:31;22.10;99.90
8340;DHT22;4207;49.314;7.162;2022-08-05T07:22:19;22.20;99.90
8340;DHT22;4207;49.314;7.162;2022-08-05T07:24:57;22.20;99.90
8340;DHT22;4207;49.314;7.162;2022-08-05T07:27:45;22.10;99.90
8340;DHT22;4207;49.314;7.162;2022-08-05T07:30:30;22.20;99.90
8340;DHT22;4207;49.314;7.162;2022-08-05T07:33:03;22.30;99.90
8340;DHT22;4207;49.314;7.162;2022-08-05T07:35:36;22.40;99.90
8340;DHT22;4207;49.314;7.162;2022-08-05T07:38:25;22.50;99.90
8340;DHT22;4207;49.314;7.162;2022-08-05T07:41:02;22.50;99.90
8340;DHT22;4207;49.314;7.162;2022-08-05T07:43:54;22.50;99.90
8340;DHT22;4207;49.314;7.162;2022-08-05T07:46:27;22.60;99.90
8340;DHT22;4207;49.314;7.162;2022-08-05T07:48:58;22.60;99.90
8340;DHT22;4207;49.314;7.162;2022-08-05T07:51:35;22.70;99.90
8340;DHT22;4207;49.314;7.162;2022-08-05T07:54:19;22.80;99.90
8340;DHT22;4207;49.314;7.162;2022-08-05T07:56:59;22.90;99.90
8340;DHT22;4207;49.314;7.162;2022-08-05T07:59:49;23.00;99.90
8340;DHT22;4207;49.314;7.162;2022-08-05T08:02:23;23.00;99.90
8340;DHT22;4207;49.314;7.162;2022-08-05T08:04:56;23.10;99.90
8340;DHT22;4207;49.314;7.162;2022-08-05T08:07:29;23.20;99.90
8340;DHT22;4207;49.314;7.162;2022-08-05T08:10:17;23.20;99.90
8340;DHT22;4207;49.314;7.162;2022-08-05T08:12:46;23.20;99.90
8340;DHT22;4207;49.314;7.162;2022-08-05T08:15:16;23.20;99.90
8340;DHT22;4207;49.314;7.162;2022-08-05T08:18:05;23.20;99.90
8340;DHT22;4207;49.314;7.162;2022-08-05T08:20:40;23.40;99.90
8340;DHT22;4207;49.314;7.162;2022-08-05T08:23:28;23.60;99.90
8340;DHT22;4207;49.314;7.162;2022-08-05T08:26:18;23.70;99.90
8340;DHT22;4207;49.314;7.162;2022-08-05T08:28:55;23.80;99.90
8340;DHT22;4207;49.314;7.162;2022-08-05T08:31:45;23.90;99.90
8340;DHT22;4207;49.314;7.162;2022-08-05T08:34:15;24.00;99.90
8340;DHT22;4207;49.314;7.162;2022-08-05T08:36:55;24.20;99.90
8340;DHT22;4207;49.314;7.162;2022-08-05T08:39:31;24.30;99.90
8340;DHT22;4207;49.314;7.162;2022-08-05T08:42:04;24.40;99.90
8340;DHT22;4207;49.314;7.162;2022-08-05T08:44:53;24.50;99.90
8340;DHT22;4207;49.314;7.162;2022-08-05T08:47:43;24.60;99.90
8340;DHT22;4207;49.314;7.162;2022-08-05T08:50:35;24.60;99.90
8340;DHT22;4207;49.314;7.162;2022-08-05T08:53:33;24.70;99.90
8340;DHT22;4207;49.314;7.162;2022-08-05T08:56:11;24.70;99.90
8340;DHT22;4207;49.314;7.162;2022-08-05T08:58:40;24.70;99.90
8340;DHT22;4207;49.314;7.162;2022-08-05T09:01:14;24.80;99.90
8340;DHT22;4207;49.314;7.162;2022-08-05T09:03:46;24.90;99.90
8340;DHT22;4207;49.314;7.162;2022-08-05T09:06:23;24.70;99.90
8340;DHT22;4207;49.314;7.162;2022-08-05T09:08:57;24.60;99.90
8340;DHT22;4207;49.314;7.162;2022-08-05T09:11:31;24.50;99.90
8340;DHT22;4207;49.314;7.162;2022-08-05T09:14:19;24.60;99.90
8340;DHT22;4207;49.314;7.162;2022-08-05T09:17:09;24.50;99.90
8340;DHT22;4207;49.314;7.162;2022-08-05T09:19:58;24.50;99.90
8340;DHT22;4207;49.314;7.162;2022-08-05T09:23:03;24.40;99.90
8340;DHT22;4207;49.314;7.162;2022-08-05T09:25:36;24.30;99.90
8340;DHT22;4207;49.314;7.162;2022-08-05T09:28:27;24.40;99.90
8340;DHT22;4207;49.314;7.162;2022-08-05T09:31:01;24.50;99.90
8340;DHT22;4207;49.314;7.162;2022-08-05T09:33:55;24.40;99.90
8340;DHT22;4207;49.314;7.162;2022-08-05T09:36:37;24.20;99.90
8340;DHT22;4207;49.314;7.162;2022-08-05T09:39:25;24.00;99.90
8340;DHT22;4207;49.314;7.162;2022-08-05T09:42:13;23.80;99.90
8340;DHT22;4207;49.314;7.162;2022-08-05T09:44:51;23.60;99.90
8340;DHT22;4207;49.314;7.162;2022-08-05T09:47:26;23.30;99.90
8340;DHT22;4207;49.314;7.162;2022-08-05T09:50:18;23.10;99.90
8340;DHT22;4207;49.314;7.162;2022-08-05T09:53:06;23.10;99.90
8340;DHT22;4207;49.314;7.162;2022-08-05T09:55:44;23.30;99.90
8340;DHT22;4207;49.314;7.162;2022-08-05T09:58:26;23.60;99.90
8340;DHT22;4207;49.314;7.162;2022-08-05T10:01:00;23.90;99.90
8340;DHT22;4207;49.314;7.162;2022-08-05T10:03:54;24.10;99.90
8340;DHT22;4207;49.314;7.162;2022-08-05T10:06:26;24.30;99.90
8340;DHT22;4207;49.314;7.162;2022-08-05T10:08:55;24.40;99.90
8340;DHT22;4207;49.314;7.162;2022-08-05T10:11:24;24.70;99.90
8340;DHT22;4207;49.314;7.162;2022-08-05T10:14:19;24.90;99.90
8340;DHT22;4207;49.314;7.162;2022-08-05T10:16:48;24.90;99.90
8340;DHT22;4207;49.314;7.162;2022-08-05T10:19:19;25.00;99.90
8340;DHT22;4207;49.314;7.162;2022-08-05T10:22:00;25.00;99.90
8340;DHT22;4207;49.314;7.162;2022-08-05T10:24:35;25.10;99.90
8340;DHT22;4207;49.314;7.162;2022-08-05T10:27:07;25.10;99.90
8340;DHT22;4207;49.314;7.162;2022-08-05T10:29:36;25.10;99.90
8340;DHT22;4207;49.314;7.162;2022-08-05T10:32:25;25.00;99.90
8340;DHT22;4207;49.314;7.162;2022-08-05T10:35:13;24.90;99.90
8340;DHT22;4207;49.314;7.162;2022-08-05T10:37:43;24.90;99.90
8340;DHT22;4207;49.314;7.162;2022-08-05T10:40:20;24.80;99.90
8340;DHT22;4207;49.314;7.162;2022-08-05T10:43:00;24.60;99.90
8340;DHT22;4207;49.314;7.162;2022-08-05T10:45:30;24.50;99.90
8340;DHT22;4207;49.314;7.162;2022-08-05T10:48:30;24.60;99.90
8340;DHT22;4207;49.314;7.162;2022-08-05T10:51:19;24.50;99.90
8340;DHT22;4207;49.314;7.162;2022-08-05T10:53:55;24.50;99.90
8340;DHT22;4207;49.314;7.162;2022-08-05T10:56:43;24.40;99.90
8340;DHT22;4207;49.314;7.162;2022-08-05T10:59:16;24.30;99.90
8340;DHT22;4207;49.314;7.162;2022-08-05T11:02:06;24.20;99.90
8340;DHT22;4207;49.314;7.162;2022-08-05T11:04:44;24.10;99.90
8340;DHT22;4207;49.314;7.162;2022-08-05T11:07:12;24.10;99.90
8340;DHT22;4207;49.314;7.162;2022-08-05T11:09:59;24.10;99.90
8340;DHT22;4207;49.314;7.162;2022-08-05T11:12:43;24.20;99.90
8340;DHT22;4207;49.314;7.162;2022-08-05T11:15:20;24.40;99.90
8340;DHT22;4207;49.314;7.162;2022-08-05T11:17:49;24.70;99.90
8340;DHT22;4207;49.314;7.162;2022-08-05T11:20:41;25.10;99.90
8340;DHT22;4207;49.314;7.162;2022-08-05T11:23:31;25.20;99.90
8340;DHT22;4207;49.314;7.162;2022-08-05T11:26:20;25.20;99.90
8340;DHT22;4207;49.314;7.162;2022-08-05T11:28:58;25.30;99.90
8340;DHT22;4207;49.314;7.162;2022-08-05T11:31:44;25.40;99.90
8340;DHT22;4207;49.314;7.162;2022-08-05T11:34:37;25.60;99.90
8340;DHT22;4207;49.314;7.162;2022-08-05T11:37:08;25.80;99.90
8340;DHT22;4207;49.314;7.162;2022-08-05T11:39:57;25.80;99.90
8340;DHT22;4207;49.314;7.162;2022-08-05T11:42:31;25.90;99.90
8340;DHT22;4207;49.314;7.162;2022-08-05T11:45:06;25.70;99.90
8340;DHT22;4207;49.314;7.162;2022-08-05T11:47:57;25.80;99.90
8340;DHT22;4207;49.314;7.162;2022-08-05T11:50:26;26.00;99.90
8340;DHT22;4207;49.314;7.162;2022-08-05T11:52:54;26.20;99.90
8340;DHT22;4207;49.314;7.162;2022-08-05T11:55:24;26.30;99.90
8340;DHT22;4207;49.314;7.162;2022-08-05T11:58:02;26.30;99.90
8340;DHT22;4207;49.314;7.162;2022-08-05T12:00:40;26.30;99.90
8340;DHT22;4207;49.314;7.162;2022-08-05T12:03:17;26.30;99.90
8340;DHT22;4207;49.314;7.162;2022-08-05T12:06:01;26.10;99.90
8340;DHT22;4207;49.314;7.162;2022-08-05T12:08:32;25.80;99.90
8340;DHT22;4207;49.314;7.162;2022-08-05T12:11:17;25.50;99.90
8340;DHT22;4207;49.314;7.162;2022-08-05T12:13:54;25.30;99.90
8340;DHT22;4207;49.314;7.162;2022-08-05T12:16:32;25.20;99.90
8340;DHT22;4207;49.314;7.162;2022-08-05T12:19:07;25.30;99.90
8340;DHT22;4207;49.314;7.162;2022-08-05T12:21:56;25.50;99.90
8340;DHT22;4207;49.314;7.162;2022-08-05T12:24:27;25.70;99.90
8340;DHT22;4207;49.314;7.162;2022-08-05T12:26:55;26.00;99.90
8340;DHT22;4207;49.314;7.162;2022-08-05T12:29:25;26.20;99.90
8340;DHT22;4207;49.314;7.162;2022-08-05T12:32:05;26.20;99.90
8340;DHT22;4207;49.314;7.162;2022-08-05T12:34:37;26.30;99.90
8340;DHT22;4207;49.314;7.162;2022-08-05T12:37:07;26.40;99.90
8340;DHT22;4207;49.314;7.162;2022-08-05T12:39:52;26.50;99.90
8340;DHT22;4207;49.314;7.162;2022-08-05T12:42:29;26.50;99.60
8340;DHT22;4207;49.314;7.162;2022-08-05T12:45:02;26.30;99.40
8340;DHT22;4207;49.314;7.162;2022-08-05T12:47:37;26.10;99.30
8340;DHT22;4207;49.314;7.162;2022-08-05T12:50:28;26.10;98.90
8340;DHT22;4207;49.314;7.162;2022-08-05T12:52:57;26.10;98.50
8340;DHT22;4207;49.314;7.162;2022-08-05T12:55:27;26.00;98.60
8340;DHT22;4207;49.314;7.162;2022-08-05T12:58:02;25.90;98.70
8340;DHT22;4207;49.314;7.162;2022-08-05T13:00:51;25.80;99.10
8340;DHT22;4207;49.314;7.162;2022-08-05T13:03:40;25.80;99.30
8340;DHT22;4207;49.314;7.162;2022-08-05T13:06:17;25.80;99.20
8340;DHT22;4207;49.314;7.162;2022-08-05T13:08:46;25.80;99.10
8340;DHT22;4207;49.314;7.162;2022-08-05T13:11:20;25.80;98.80
8340;DHT22;4207;49.314;7.162;2022-08-05T13:14:15;25.80;98.90
8340;DHT22;4207;49.314;7.162;2022-08-05T13:16:50;25.80;98.80
8340;DHT22;4207;49.314;7.162;2022-08-05T13:19:23;25.80;99.00
8340;DHT22;4207;49.314;7.162;2022-08-05T13:21:55;25.90;99.20
8340;DHT22;4207;49.314;7.162;2022-08-05T13:24:24;26.00;98.70
8340;DHT22;4207;49.314;7.162;2022-08-05T13:27:23;26.00;98.60
8340;DHT22;4207;49.314;7.162;2022-08-05T13:30:05;25.90;98.90
8340;DHT22;4207;49.314;7.162;2022-08-05T13:32:54;26.10;98.40
8340;DHT22;4207;49.314;7.162;2022-08-05T13:35:22;26.20;97.30
8340;DHT22;4207;49.314;7.162;2022-08-05T13:38:14;26.30;96.80
8340;DHT22;4207;49.314;7.162;2022-08-05T13:40:56;26.50;96.30
8340;DHT22;4207;49.314;7.162;2022-08-05T13:43:25;26.60;94.80
8340;DHT22;4207;49.314;7.162;2022-08-05T13:46:12;26.60;95.10
8340;DHT22;4207;49.314;7.162;2022-08-05T13:49:07;26.60;95.10
8340;DHT22;4207;49.314;7.162;2022-08-05T13:51:38;26.70;95.10
8340;DHT22;4207;49.314;7.162;2022-08-05T13:54:14;26.80;95.60
8340;DHT22;4207;49.314;7.162;2022-08-05T13:56:51;26.80;95.00
8340;DHT22;4207;49.314;7.162;2022-08-05T13:59:20;26.70;95.80
8340;DHT22;4207;49.314;7.162;2022-08-05T14:01:54;26.60;96.40
8340;DHT22;4207;49.314;7.162;2022-08-05T14:04:28;26.60;96.60
8340;DHT22;4207;49.314;7.162;2022-08-05T14:07:16;26.40;96.80
8340;DHT22;4207;49.314;7.162;2022-08-05T14:10:09;26.40;97.30
8340;DHT22;4207;49.314;7.162;2022-08-05T14:12:37;26.20;97.90
8340;DHT22;4207;49.314;7.162;2022-08-05T14:15:14;26.10;98.20
8340;DHT22;4207;49.314;7.162;2022-08-05T14:18:03;25.80;98.70
8340;DHT22;4207;49.314;7.162;2022-08-05T14:20:40;25.60;99.10
8340;DHT22;4207;49.314;7.162;2022-08-05T14:23:13;25.70;99.50
8340;DHT22;4207;49.314;7.162;2022-08-05T14:25:53;25.70;99.30
8340;DHT22;4207;49.314;7.162;2022-08-05T14:28:26;25.50;99.60
8340;DHT22;4207;49.314;7.162;2022-08-05T14:30:58;25.50;99.80
8340;DHT22;4207;49.314;7.162;2022-08-05T14:33:27;25.60;99.70
8340;DHT22;4207;49.314;7.162;2022-08-05T14:36:17;25.60;99.80
8340;DHT22;4207;49.314;7.162;2022-08-05T14:38:47;25.60;99.90
8340;DHT22;4207;49.314;7.162;2022-08-05T14:41:17;25.60;99.90
8340;DHT22;4207;49.314;7.162;2022-08-05T14:43:45;25.70;99.90
8340;DHT22;4207;49.314;7.162;2022-08-05T14:46:33;25.80;99.90
8340;DHT22;4207;49.314;7.162;2022-08-05T14:49:03;25.70;99.90
8340;DHT22;4207;49.314;7.162;2022-08-05T14:51:34;25.70;99.90
8340;DHT22;4207;49.314;7.162;2022-08-05T14:54:04;25.70;99.90
8340;DHT22;4207;49.314;7.162;2022-08-05T14:56:57;25.70;99.90
8340;DHT22;4207;49.314;7.162;2022-08-05T14:59:27;25.70;99.90
8340;DHT22;4207;49.314;7.162;2022-08-05T15:02:02;25.60;99.90
8340;DHT22;4207;49.314;7.162;2022-08-05T15:04:42;25.40;99.90
8340;DHT22;4207;49.314;7.162;2022-08-05T15:07:13;25.20;99.90
8340;DHT22;4207;49.314;7.162;2022-08-05T15:10:01;25.20;99.90
8340;DHT22;4207;49.314;7.162;2022-08-05T15:12:36;25.20;99.90
8340;DHT22;4207;49.314;7.162;2022-08-05T15:15:25;25.20;99.90
8340;DHT22;4207;49.314;7.162;2022-08-05T15:18:13;25.20;99.90
8340;DHT22;4207;49.314;7.162;2022-08-05T15:20:43;25.20;99.90
8340;DHT22;4207;49.314;7.162;2022-08-05T15:23:12;25.20;99.90
8340;DHT22;4207;49.314;7.162;2022-08-05T15:25:40;25.20;99.90
8340;DHT22;4207;49.314;7.162;2022-08-05T15:28:20;25.20;99.90
8340;DHT22;4207;49.314;7.162;2022-08-05T15:30:56;25.10;99.90
8340;DHT22;4207;49.314;7.162;2022-08-05T15:33:29;25.10;99.90
8340;DHT22;4207;49.314;7.162;2022-08-05T15:36:17;25.10;99.90
8340;DHT22;4207;49.314;7.162;2022-08-05T15:38:51;25.10;99.90
8340;DHT22;4207;49.314;7.162;2022-08-05T15:41:39;25.10;99.90
8340;DHT22;4207;49.314;7.162;2022-08-05T15:44:28;25.00;99.90
8340;DHT22;4207;49.314;7.162;2022-08-05T15:46:59;25.00;99.90
8340;DHT22;4207;49.314;7.162;2022-08-05T15:49:27;25.20;99.90
8340;DHT22;4207;49.314;7.162;2022-08-05T15:52:18;25.20;99.90
8340;DHT22;4207;49.314;7.162;2022-08-05T15:55:08;25.30;99.60
8340;DHT22;4207;49.314;7.162;2022-08-05T15:57:42;25.40;98.90
8340;DHT22;4207;49.314;7.162;2022-08-05T16:00:16;25.30;98.20
8340;DHT22;4207;49.314;7.162;2022-08-05T16:02:56;25.10;97.40
8340;DHT22;4207;49.314;7.162;2022-08-05T16:05:25;24.90;97.70
8340;DHT22;4207;49.314;7.162;2022-08-05T16:07:54;24.60;97.80
8340;DHT22;4207;49.314;7.162;2022-08-05T16:10:23;24.60;98.00
8340;DHT22;4207;49.314;7.162;2022-08-05T16:12:52;24.60;97.90
8340;DHT22;4207;49.314;7.162;2022-08-05T16:15:23;24.70;97.70
8340;DHT22;4207;49.314;7.162;2022-08-05T16:17:59;24.70;96.90
8340;DHT22;4207;49.314;7.162;2022-08-05T16:20:34;24.80;95.30
8340;DHT22;4207;49.314;7.162;2022-08-05T16:23:03;24.90;94.50
8340;DHT22;4207;49.314;7.162;2022-08-05T16:25:34;25.00;94.20
8340;DHT22;4207;49.314;7.162;2022-08-05T16:28:05;25.10;93.70
8340;DHT22;4207;49.314;7.162;2022-08-05T16:30:37;25.20;93.30
8340;DHT22;4207;49.314;7.162;2022-08-05T16:33:10;25.10;92.90
8340;DHT22;4207;49.314;7.162;2022-08-05T16:35:43;25.10;93.20
8340;DHT22;4207;49.314;7.162;2022-08-05T16:38:18;25.10;93.20
8340;DHT22;4207;49.314;7.162;2022-08-05T16:40:54;25.10;92.80
8340;DHT22;4207;49.314;7.162;2022-08-05T16:43:28;25.10;93.00
8340;DHT22;4207;49.314;7.162;2022-08-05T16:45:59;25.10;92.90
8340;DHT22;4207;49.314;7.162;2022-08-05T16:48:35;25.00;92.20
8340;DHT22;4207;49.314;7.162;2022-08-05T16:51:05;25.00;92.10
8340;DHT22;4207;49.314;7.162;2022-08-05T16:53:36;24.90;92.50
8340;DHT22;4207;49.314;7.162;2022-08-05T16:56:28;24.70;92.80
8340;DHT22;4207;49.314;7.162;2022-08-05T16:59:01;24.70;92.70
8340;DHT22;4207;49.314;7.162;2022-08-05T17:01:36;24.60;93.10
8340;DHT22;4207;49.314;7.162;2022-08-05T17:04:25;24.50;93.20
8340;DHT22;4207;49.314;7.162;2022-08-05T17:06:55;24.30;93.00
8340;DHT22;4207;49.314;7.162;2022-08-05T17:09:28;24.20;93.40
8340;DHT22;4207;49.314;7.162;2022-08-05T17:12:05;24.20;93.60
8340;DHT22;4207;49.314;7.162;2022-08-05T17:14:33;24.20;93.80
8340;DHT22;4207;49.314;7.162;2022-08-05T17:17:06;24.30;94.70
8340;DHT22;4207;49.314;7.162;2022-08-05T17:19:41;24.10;95.30
8340;DHT22;4207;49.314;7.162;2022-08-05T17:22:13;23.90;95.60
8340;DHT22;4207;49.314;7.162;2022-08-05T17:24:51;23.60;96.10
8340;DHT22;4207;49.314;7.162;2022-08-05T17:27:24;23.50;96.60
8340;DHT22;4207;49.314;7.162;2022-08-05T17:30:01;23.40;96.80
8340;DHT22;4207;49.314;7.162;2022-08-05T17:32:46;23.40;97.10
8340;DHT22;4207;49.314;7.162;2022-08-05T17:35:14;23.40;96.80
8340;DHT22;4207;49.314;7.162;2022-08-05T17:37:51;23.50;96.70
8340;DHT22;4207;49.314;7.162;2022-08-05T17:40:30;23.50;96.30
8340;DHT22;4207;49.314;7.162;2022-08-05T17:42:59;23.70;96.10
8340;DHT22;4207;49.314;7.162;2022-08-05T17:45:33;23.90;95.40
8340;DHT22;4207;49.314;7.162;2022-08-05T17:48:06;24.00;95.00
8340;DHT22;4207;49.314;7.162;2022-08-05T17:50:34;24.00;95.10
8340;DHT22;4207;49.314;7.162;2022-08-05T17:53:03;24.10;94.20
8340;DHT22;4207;49.314;7.162;2022-08-05T17:55:34;24.20;93.50
8340;DHT22;4207;49.314;7.162;2022-08-05T17:58:09;24.30;93.40
8340;DHT22;4207;49.314;7.162;2022-08-05T18:00:40;24.20;93.70
8340;DHT22;4207;49.314;7.162;2022-08-05T18:03:16;24.30;93.50
8340;DHT22;4207;49.314;7.162;2022-08-05T18:06:04;24.20;93.60
8340;DHT22;4207;49.314;7.162;2022-08-05T18:08:38;24.20;92.90
8340;DHT22;4207;49.314;7.162;2022-08-05T18:11:11;24.10;93.40
8340;DHT22;4207;49.314;7.162;2022-08-05T18:13:52;24.00;93.00
8340;DHT22;4207;49.314;7.162;2022-08-05T18:16:21;24.00;92.80
8340;DHT22;4207;49.314;7.162;2022-08-05T18:18:50;23.80;92.60
8340;DHT22;4207;49.314;7.162;2022-08-05T18:21:18;23.60;93.10
8340;DHT22;4207;49.314;7.162;2022-08-05T18:23:52;23.40;93.50
8340;DHT22;4207;49.314;7.162;2022-08-05T18:26:20;23.20;93.70
8340;DHT22;4207;49.314;7.162;2022-08-05T18:28:53;23.10;94.00
8340;DHT22;4207;49.314;7.162;2022-08-05T18:31:24;23.00;94.30
8340;DHT22;4207;49.314;7.162;2022-08-05T18:34:03;22.90;94.50
8340;DHT22;4207;49.314;7.162;2022-08-05T18:36:38;22.90;94.70
8340;DHT22;4207;49.314;7.162;2022-08-05T18:39:11;22.70;95.00
8340;DHT22;4207;49.314;7.162;2022-08-05T18:41:59;22.60;95.20
8340;DHT22;4207;49.314;7.162;2022-08-05T18:44:32;22.50;95.60
8340;DHT22;4207;49.314;7.162;2022-08-05T18:47:15;22.30;96.00
8340;DHT22;4207;49.314;7.162;2022-08-05T18:49:49;22.20;96.30
8340;DHT22;4207;49.314;7.162;2022-08-05T18:52:36;22.10;96.50
8340;DHT22;4207;49.314;7.162;2022-08-05T18:55:17;22.00;96.90
8340;DHT22;4207;49.314;7.162;2022-08-05T18:57:45;21.80;97.30
8340;DHT22;4207;49.314;7.162;2022-08-05T19:00:20;21.70;97.70
8340;DHT22;4207;49.314;7.162;2022-08-05T19:02:55;21.60;97.80
8340;DHT22;4207;49.314;7.162;2022-08-05T19:05:32;21.50;97.90
8340;DHT22;4207;49.314;7.162;2022-08-05T19:08:21;21.40;97.60
8340;DHT22;4207;49.314;7.162;2022-08-05T19:10:57;21.30;97.60
8340;DHT22;4207;49.314;7.162;2022-08-05T19:13:31;21.20;97.50
8340;DHT22;4207;49.314;7.162;2022-08-05T19:16:04;21.10;97.50
8340;DHT22;4207;49.314;7.162;2022-08-05T19:18:52;21.10;97.80
8340;DHT22;4207;49.314;7.162;2022-08-05T19:21:28;20.90;97.80
8340;DHT22;4207;49.314;7.162;2022-08-05T19:24:01;20.90;98.00
8340;DHT22;4207;49.314;7.162;2022-08-05T19:26:39;20.80;98.00
8340;DHT22;4207;49.314;7.162;2022-08-05T19:29:21;20.70;98.20
8340;DHT22;4207;49.314;7.162;2022-08-05T19:32:05;20.70;98.20
8340;DHT22;4207;49.314;7.162;2022-08-05T19:34:40;20.60;98.20
8340;DHT22;4207;49.314;7.162;2022-08-05T19:37:22;20.50;98.30
8340;DHT22;4207;49.314;7.162;2022-08-05T19:40:10;20.40;98.50
8340;DHT22;4207;49.314;7.162;2022-08-05T19:42:43;20.30;98.40
8340;DHT22;4207;49.314;7.162;2022-08-05T19:45:31;20.30;98.50
8340;DHT22;4207;49.314;7.162;2022-08-05T19:48:03;20.20;98.80
8340;DHT22;4207;49.314;7.162;2022-08-05T19:50:32;20.10;98.50
8340;DHT22;4207;49.314;7.162;2022-08-05T19:53:02;20.10;98.60
8340;DHT22;4207;49.314;7.162;2022-08-05T19:55:36;20.10;98.50
8340;DHT22;4207;49.314;7.162;2022-08-05T19:58:25;20.00;98.60
8340;DHT22;4207;49.314;7.162;2022-08-05T20:00:55;20.00;98.50
8340;DHT22;4207;49.314;7.162;2022-08-05T20:03:24;20.00;98.40
8340;DHT22;4207;49.314;7.162;2022-08-05T20:06:04;19.90;98.10
8340;DHT22;4207;49.314;7.162;2022-08-05T20:08:45;19.90;98.10
8340;DHT22;4207;49.314;7.162;2022-08-05T20:11:15;19.90;98.00
8340;DHT22;4207;49.314;7.162;2022-08-05T20:13:45;19.80;97.80
8340;DHT22;4207;49.314;7.162;2022-08-05T20:16:33;19.80;98.00
8340;DHT22;4207;49.314;7.162;2022-08-05T20:19:05;19.70;98.20
8340;DHT22;4207;49.314;7.162;2022-08-05T20:21:33;19.70;98.40
8340;DHT22;4207;49.314;7.162;2022-08-05T20:24:07;19.70;98.60
8340;DHT22;4207;49.314;7.162;2022-08-05T20:26:37;19.60;98.70
8340;DHT22;4207;49.314;7.162;2022-08-05T20:29:10;19.60;98.60
8340;DHT22;4207;49.314;7.162;2022-08-05T20:31:53;19.50;98.50
8340;DHT22;4207;49.314;7.162;2022-08-05T20:34:27;19.50;98.00
8340;DHT22;4207;49.314;7.162;2022-08-05T20:36:55;19.40;97.70
8340;DHT22;4207;49.314;7.162;2022-08-05T20:39:24;19.40;97.70
8340;DHT22;4207;49.314;7.162;2022-08-05T20:42:03;19.20;97.60
8340;DHT22;4207;49.314;7.162;2022-08-05T20:44:37;19.30;97.40
8340;DHT22;4207;49.314;7.162;2022-08-05T20:47:06;19.30;97.50
8340;DHT22;4207;49.314;7.162;2022-08-05T20:49:35;19.20;97.50
8340;DHT22;4207;49.314;7.162;2022-08-05T20:52:06;19.20;97.50
8340;DHT22;4207;49.314;7.162;2022-08-05T20:54:35;19.10;97.50
8340;DHT22;4207;49.314;7.162;2022-08-05T20:57:09;19.10;97.40
8340;DHT22;4207;49.314;7.162;2022-08-05T20:59:40;19.10;97.60
8340;DHT22;4207;49.314;7.162;2022-08-05T21:02:28;19.00;97.70
8340;DHT22;4207;49.314;7.162;2022-08-05T21:04:56;19.00;97.70
8340;DHT22;4207;49.314;7.162;2022-08-05T21:07:28;18.90;97.70
8340;DHT22;4207;49.314;7.162;2022-08-05T21:10:17;18.90;97.80
8340;DHT22;4207;49.314;7.162;2022-08-05T21:12:47;18.80;97.80
8340;DHT22;4207;49.314;7.162;2022-08-05T21:15:34;18.80;97.90
8340;DHT22;4207;49.314;7.162;2022-08-05T21:18:04;18.80;98.00
8340;DHT22;4207;49.314;7.162;2022-08-05T21:20:32;18.70;98.00
8340;DHT22;4207;49.314;7.162;2022-08-05T21:23:01;18.70;98.10
8340;DHT22;4207;49.314;7.162;2022-08-05T21:25:32;18.60;98.20
8340;DHT22;4207;49.314;7.162;2022-08-05T21:28:01;18.60;98.30
8340;DHT22;4207;49.314;7.162;2022-08-05T21:30:29;18.50;98.40
8340;DHT22;4207;49.314;7.162;2022-08-05T21:32:58;18.60;98.50
8340;DHT22;4207;49.314;7.162;2022-08-05T21:35:27;18.40;98.30
8340;DHT22;4207;49.314;7.162;2022-08-05T21:38:16;18.40;98.70
8340;DHT22;4207;49.314;7.162;2022-08-05T21:40:46;18.30;98.80
8340;DHT22;4207;49.314;7.162;2022-08-05T21:43:16;18.30;98.90
8340;DHT22;4207;49.314;7.162;2022-08-05T21:45:51;18.30;99.00
8340;DHT22;4207;49.314;7.162;2022-08-05T21:48:26;18.20;99.20
8340;DHT22;4207;49.314;7.162;2022-08-05T21:50:54;18.20;99.20
8340;DHT22;4207;49.314;7.162;2022-08-05T21:53:23;18.10;99.60
8340;DHT22;4207;49.314;7.162;2022-08-05T21:55:55;18.10;99.40
8340;DHT22;4207;49.314;7.162;2022-08-05T21:58:42;18.00;99.50
8340;DHT22;4207;49.314;7.162;2022-08-05T22:01:23;18.00;99.90
8340;DHT22;4207;49.314;7.162;2022-08-05T22:03:51;18.00;99.80
8340;DHT22;4207;49.314;7.162;2022-08-05T22:06:20;17.90;99.90
8340;DHT22;4207;49.314;7.162;2022-08-05T22:09:01;17.90;99.80
8340;DHT22;4207;49.314;7.162;2022-08-05T22:11:43;17.80;99.90
8340;DHT22;4207;49.314;7.162;2022-08-05T22:14:14;17.80;99.90
8340;DHT22;4207;49.314;7.162;2022-08-05T22:17:03;17.70;99.90
8340;DHT22;4207;49.314;7.162;2022-08-05T22:19:33;17.70;99.90
8340;DHT22;4207;49.314;7.162;2022-08-05T22:22:24;17.70;99.90
8340;DHT22;4207;49.314;7.162;2022-08-05T22:24:56;17.60;99.90
8340;DHT22;4207;49.314;7.162;2022-08-05T22:28:12;17.60;99.90
8340;DHT22;4207;49.314;7.162;2022-08-05T22:30:44;17.60;99.90
8340;DHT22;4207;49.314;7.162;2022-08-05T22:33:26;17.50;99.90
8340;DHT22;4207;49.314;7.162;2022-08-05T22:36:17;17.50;99.90
8340;DHT22;4207;49.314;7.162;2022-08-05T22:38:50;17.50;99.90
8340;DHT22;4207;49.314;7.162;2022-08-05T22:41:20;17.40;99.90
8340;DHT22;4207;49.314;7.162;2022-08-05T22:44:09;17.30;99.90
8340;DHT22;4207;49.314;7.162;2022-08-05T22:46:38;17.40;99.90
8340;DHT22;4207;49.314;7.162;2022-08-05T22:49:07;17.20;99.90